• Join FlightAware (Why Join?)
  • Login
  • US Flag 
04:23AM EST


 

Airport Tracker/Info


-or-


 

Live Flight TrackerFlight Track Log ✈ SKW6492 ✈ 28-Aug-2013 ✈ KDEN - KCOD

Flight Track Log - Related Links

Times and Time Zones

All times are in EDT time to prevent confusion due to time zone crossing. See the SKW6492 flight status page for this flight to view local times or setup timezone preferences in your user account.

Time Position Orientation Groundspeed Altitude Reporting Facility
EDT Latitude Longitude Course Direction KTS MPH feet Rate Location/Type
09:57PM 39.9500 -104.6833 348° North 213 245 7,700  Level Denver TRACON
09:58PM 40.0167 -104.6667 11° North 250 288 9,300 1,500 Climbing Denver TRACON
09:59PM 40.0833 -104.6667 360° North 287 330 10,800 1,680 Climbing Denver TRACON
10:00PM 40.1833 -104.6833 353° North 289 333 12,900 1,800 Climbing Denver TRACON
10:01PM 40.2789 -104.7161 345° North 310 357 14,900 1,620 Climbing Denver Center
10:02PM 40.6011 -104.9074 348° North  Level FlightAware Approximate
10:02PM 40.3664 -104.7403 348° North 318 366 16,500  Level Denver Center
10:03PM 40.4639 -104.7650 349° North 329 379 18,000 1,380 Climbing Denver Center
10:04PM 40.5556 -104.7900 348° North 334 384 19,400 1,260 Climbing Denver Center
10:05PM 40.6508 -104.8156 348° North 349 402 20,600 1,140 Climbing Denver Center
10:06PM 40.7569 -104.8444 348° North 350 403 21,800 1,200 Climbing Denver Center
10:07PM 40.8514 -104.8800 344° North 352 405 23,100 1,020 Climbing Denver Center
10:08PM 40.9381 -104.9433 331° Northwest 355 409 24,000 960 Climbing Denver Center
10:09PM 41.0156 -105.0264 321° Northwest 366 421 25,100 900 Climbing Denver Center
10:10PM 41.0919 -105.1078 321° Northwest 365 420 25,900 420 Climbing Denver Center
10:11PM 41.1822 -105.2028 322° Northwest 370 426 26,000  Climbing Denver Center
10:12PM 41.2594 -105.2864 321° Northwest 372 428 26,000  Level Denver Center
10:13PM 41.3483 -105.3811 321° Northwest 367 422 26,000  Level Denver Center
10:14PM 41.4253 -105.4644 321° Northwest 372 428 26,000  Level Denver Center
10:15PM 41.5128 -105.5583 321° Northwest 363 418 26,000  Level Denver Center
10:16PM 41.5889 -105.6406 321° Northwest 366 421 26,000  Level Denver Center
10:17PM 41.6756 -105.7347 321° Northwest 360 414 26,000  Level Denver Center
10:18PM 41.7506 -105.8153 321° Northwest 360 414 26,000  Level Denver Center
10:19PM 41.8256 -105.8981 321° Northwest 364 419 26,000  Level Denver Center
10:20PM 41.9111 -105.9925 321° Northwest 358 412 26,000  Level Denver Center
10:21PM 41.9883 -106.0761 321° Northwest 364 419 26,000  Level Denver Center
10:22PM 42.0631 -106.1581 321° Northwest 362 417 26,000  Level Denver Center
10:23PM 42.1467 -106.2531 320° Northwest 356 410 26,000  Level Denver Center
10:24PM 42.2225 -106.3358 321° Northwest 364 419 26,000  Level Denver Center
10:25PM 42.3092 -106.4331 320° Northwest 363 418 26,000  Level Denver Center
10:26PM 42.3842 -106.5172 320° Northwest 364 419 26,000  Level Denver Center
10:27PM 42.4594 -106.6008 321° Northwest 366 421 26,000  Level Denver Center
10:28PM 42.5467 -106.6992 320° Northwest 364 419 26,000  Level Denver Center
10:29PM 42.6214 -106.7839 320° Northwest 365 420 26,000  Level Denver Center
10:31PM 42.7075 -106.8808 320° Northwest 360 414 26,000  Level Denver Center
10:32PM 42.7831 -106.9658 320° Northwest 369 425 26,000  Level Denver Center
10:33PM 42.8553 -107.0503 319° Northwest 359 413 26,000  Level Denver Center
10:33PM 42.9250 -107.1297 320° Northwest 366 421 26,000  Level Salt Lake Center
10:34PM 42.9936 -107.2086 320° Northwest 362 417 26,000  Level Salt Lake Center
10:35PM 43.0708 -107.2989 320° Northwest 365 420 26,000  Level Salt Lake Center
10:36PM 43.1633 -107.4033 321° Northwest 362 417 26,000  Level Salt Lake Center
10:37PM 43.2408 -107.4944 319° Northwest 365 420 26,000  Level Salt Lake Center
10:38PM 43.3183 -107.5853 320° Northwest 367 422 26,000  Level Salt Lake Center
10:40PM 43.3964 -107.6758 320° Northwest 367 422 26,000  Level Salt Lake Center
10:41PM 43.4736 -107.7675 319° Northwest 367 422 26,000  Level Salt Lake Center
10:42PM 43.5517 -107.8594 320° Northwest 369 425 26,000  Level Salt Lake Center
10:43PM 43.6300 -107.9500 320° Northwest 369 425 26,000  Level Salt Lake Center
10:44PM 43.7131 -108.0347 324° Northwest 375 432 26,000  Level Salt Lake Center
10:45PM 43.8233 -108.1158 332° Northwest 373 429 26,000 -840 Level Salt Lake Center
10:46PM 43.9169 -108.1833 333° Northwest 376 433 24,300 -1,800 Descending Salt Lake Center
10:47PM 44.0089 -108.2494 333° Northwest 373 429 22,300 -1,980 Descending Salt Lake Center
10:48PM 44.0961 -108.3133 332° Northwest 357 411 20,300 -2,040 Descending Salt Lake Center
10:49PM 44.1817 -108.3769 332° Northwest 350 403 18,200 -1,920 Descending Salt Lake Center
10:50PM 44.2650 -108.4375 333° Northwest 343 395 16,400 -1,860 Descending Salt Lake Center
10:51PM 44.3461 -108.4986 332° Northwest 337 388 14,400 -1,980 Descending Salt Lake Center
10:52PM 44.4250 -108.5569 332° Northwest 330 380 12,400 -2,100 Descending Salt Lake Center
10:53PM 44.5158 -108.6253 332° Northwest 319 367 10,100 -1,200 Descending Salt Lake Center
10:54PM 44.5797 -108.6744 331° Northwest 292 336 10,000 -600 Descending Salt Lake Center
10:55PM 44.6239 -108.7211 323° Northwest 233 268 8,900 -1,020 Descending Salt Lake Center
10:56PM 44.6539 -108.7758 308° West 203 234 8,000 -720 Descending Salt Lake Center
10:57PM 44.6264 -108.8369 238° Southwest 192 221 7,500 -240 Descending Salt Lake Center
10:58PM 44.5956 -108.8922 232° Southwest 186 214 7,600 -480 Climbing Salt Lake Center
10:59PM 44.5700 -108.9378 232° Southwest 170 196 6,600 -780 Descending Salt Lake Center
11:00PM 44.5422 -108.9875 232° Southwest 160 184 6,100 -540 Descending Salt Lake Center